Time;durP1;ratioP1;P1;durP2;ratioP2;P2;SDS_P1;SDS_P2;PMS_P1;PMS_P2;Temp;Humidity;BMP_temperature;BMP_pressure;BME280_temperature;BME280_humidity;BME280_pressure;Samples;Min_cycle;Max_cycle;Signal;HPM_P1;HPM_P2
2023/11/12 00:02:40;;;;;;;0.10;0.10;;;;;;;7.30;76.91;100013.38;15632041;28;20174;-51
2023/11/12 00:10:16;;;;;;;0.00;0.00;;;;;;;7.09;77.24;100017.09;15643399;28;20576;-49
2023/11/12 00:17:49;;;;;;;0.00;0.00;;;;;;;7.11;77.72;100013.16;15642291;28;20083;-50
2023/11/12 00:25:25;;;;;;;0.00;0.00;;;;;;;6.97;78.95;100014.19;15621389;28;20103;-52
2023/11/12 00:32:59;;;;;;;0.00;0.00;;;;;;;6.73;79.25;100014.78;15633853;28;20045;-50
2023/11/12 00:40:35;;;;;;;0.00;0.00;;;;;;;7.03;78.40;100021.38;15609515;28;20247;-51
2023/11/12 00:48:08;;;;;;;0.00;0.00;;;;;;;7.20;77.21;100018.31;15599312;28;20079;-48
2023/11/12 00:55:43;;;;;;;0.03;0.03;;;;;;;6.79;79.34;100024.63;15605483;28;20053;-48
2023/11/12 01:03:17;;;;;;;0.00;0.00;;;;;;;7.24;78.07;100025.69;15615091;28;20458;-50
2023/11/12 01:10:53;;;;;;;0.75;0.40;;;;;;;7.14;78.93;100039.44;15614816;28;20073;-47
2023/11/12 01:18:26;;;;;;;1.17;0.95;;;;;;;7.01;78.60;100035.94;15597954;28;20049;-51
2023/11/12 01:26:01;;;;;;;;;;;;;;;7.16;77.58;100034.72;15575933;28;20409;-51
2023/11/12 01:33:35;;;;;;;0.43;0.43;;;;;;;6.94;78.04;100035.94;15545883;28;20354;-50
2023/11/12 01:41:10;;;;;;;0.00;0.00;;;;;;;6.89;79.55;100035.72;15576325;28;20181;-51
2023/11/12 01:48:43;;;;;;;1.55;1.17;;;;;;;7.00;79.55;100026.31;15582526;28;20513;-50
2023/11/12 01:56:18;;;;;;;;;;;;;;;7.15;78.28;100034.94;15590717;28;20044;-50
2023/11/12 02:03:53;;;;;;;0.10;0.10;;;;;;;7.34;77.91;100031.44;15590138;28;19921;-50
2023/11/12 02:11:28;;;;;;;0.47;0.47;;;;;;;7.06;78.49;100020.97;15583954;28;20029;-48
2023/11/12 02:19:01;;;;;;;8.93;1.13;;;;;;;7.10;78.35;100024.88;15582495;28;20171;-50
2023/11/12 02:26:38;;;;;;;0.00;0.00;;;;;;;7.52;77.76;100019.31;15590552;28;20045;-51
2023/11/12 02:34:11;;;;;;;0.00;0.00;;;;;;;7.52;77.13;100024.66;15582224;28;20034;-50
2023/11/12 02:41:46;;;;;;;;;;;;;;;7.19;77.72;100030.00;15561864;28;20044;-49
2023/11/12 02:49:43;;;;;;;0.00;0.00;;;;;;;7.37;77.45;100023.03;15585816;28;20585;-50
2023/11/12 02:57:21;;;;;;;0.00;0.00;;;;;;;6.81;79.75;100027.94;15630227;28;20494;-49
2023/11/12 03:04:54;;;;;;;0.10;0.10;;;;;;;6.43;80.76;100025.78;15650420;28;20037;-49
2023/11/12 03:12:28;;;;;;;0.10;0.10;;;;;;;6.98;79.29;100028.34;15641660;28;20602;-50
2023/11/12 03:20:04;;;;;;;0.03;0.00;;;;;;;7.21;77.30;100031.44;15627449;28;20514;-53
2023/11/12 03:27:39;;;;;;;0.15;0.15;;;;;;;7.59;76.60;100026.25;15641827;28;20085;-51
2023/11/12 03:35:13;;;;;;;0.00;0.00;;;;;;;7.55;76.75;100029.53;15659536;28;20190;-52
2023/11/12 03:42:47;;;;;;;0.00;0.00;;;;;;;7.13;76.83;100037.81;15637752;28;20144;-49
2023/11/12 03:50:22;;;;;;;0.52;0.52;;;;;;;7.33;76.54;100039.66;15654091;28;20029;-50
2023/11/12 03:57:57;;;;;;;0.15;0.15;;;;;;;7.17;76.63;100038.19;15661002;28;20118;-49
2023/11/12 04:05:30;;;;;;;1.25;0.47;;;;;;;7.25;77.13;100035.34;15645254;28;20525;-50
2023/11/12 04:13:06;;;;;;;0.00;0.00;;;;;;;7.38;76.70;100043.34;15648839;28;20064;-54
2023/11/12 04:20:39;;;;;;;0.08;0.08;;;;;;;7.35;76.82;100041.06;15640282;28;20079;-53
2023/11/12 04:28:15;;;;;;;0.15;0.15;;;;;;;7.21;77.65;100035.94;15656430;28;20468;-51
2023/11/12 04:35:49;;;;;;;0.10;0.10;;;;;;;7.39;76.78;100041.50;15650312;28;20385;-48
2023/11/12 04:43:25;;;;;;;0.70;0.70;;;;;;;7.53;76.23;100043.13;15675977;28;20183;-49
2023/11/12 04:51:00;;;;;;;1.35;0.80;;;;;;;7.43;76.57;100037.38;15675533;28;20068;-50
2023/11/12 04:58:35;;;;;;;0.00;0.00;;;;;;;7.02;78.01;100050.94;15658421;28;20045;-48
2023/11/12 05:06:09;;;;;;;0.22;0.22;;;;;;;7.12;77.90;100056.69;15670577;28;20045;-50
2023/11/12 05:13:44;;;;;;;0.25;0.25;;;;;;;7.27;78.73;100059.13;15666962;28;20061;-49
2023/11/12 05:21:17;;;;;;;0.10;0.10;;;;;;;7.58;77.22;100069.19;15668853;28;20091;-49
2023/11/12 05:28:52;;;;;;;0.47;0.47;;;;;;;7.04;79.30;100078.22;15663870;28;20045;-49
2023/11/12 05:36:25;;;;;;;2.17;0.40;;;;;;;7.48;77.83;100082.97;15672950;28;20041;-51
2023/11/12 05:44:00;;;;;;;;;;;;;;;7.70;76.96;100075.56;15665686;28;20052;-51
2023/11/12 05:51:33;;;;;;;0.57;0.57;;;;;;;7.64;76.60;100073.72;15658353;23;19964;-52
2023/11/12 05:59:08;;;;;;;1.25;0.60;;;;;;;7.46;78.12;100093.06;15664405;28;20127;-52
2023/11/12 06:06:41;;;;;;;1.38;0.63;;;;;;;7.34;79.06;100098.16;15641466;28;20427;-52
2023/11/12 06:14:16;;;;;;;0.20;0.20;;;;;;;7.45;78.43;100104.75;15643443;28;20127;-51
2023/11/12 06:21:53;;;;;;;0.10;0.10;;;;;;;7.48;78.62;100116.88;15659980;28;20532;-53
2023/11/12 06:29:27;;;;;;;0.00;0.00;;;;;;;7.15;78.27;100126.50;15671844;28;20063;-53
2023/11/12 06:37:00;;;;;;;0.20;0.20;;;;;;;7.13;79.74;100122.38;15643936;28;20405;-51
2023/11/12 06:44:38;;;;;;;1.50;0.77;;;;;;;7.62;77.11;100122.00;15625913;28;20119;-53
2023/11/12 06:52:11;;;;;;;1.08;0.95;;;;;;;7.85;76.42;100129.59;15655408;28;20046;-52
2023/11/12 06:59:57;;;;;;;0.52;0.52;;;;;;;7.11;77.97;100141.25;15670368;28;20128;-52
2023/11/12 07:07:30;;;;;;;0.28;0.17;;;;;;;7.84;76.62;100146.66;15642734;28;20448;-52
2023/11/12 07:15:06;;;;;;;0.40;0.40;;;;;;;7.91;76.43;100149.31;15662895;28;20337;-54
2023/11/12 07:22:39;;;;;;;1.10;0.57;;;;;;;7.89;76.76;100148.72;15657952;28;20505;-52
2023/11/12 07:30:14;;;;;;;;;;;;;;;8.01;75.85;100146.22;15667552;28;20052;-52
2023/11/12 07:37:47;;;;;;;0.10;0.10;;;;;;;8.07;75.28;100151.56;15669417;28;19927;-53
2023/11/12 07:45:22;;;;;;;0.10;0.10;;;;;;;8.10;76.71;100169.03;15636579;28;20045;-52
2023/11/12 07:52:56;;;;;;;0.08;0.08;;;;;;;8.18;76.28;100171.47;15671174;28;20374;-52
2023/11/12 08:00:32;;;;;;;0.88;0.45;;;;;;;7.80;77.54;100166.78;15676268;28;20037;-54
2023/11/12 08:08:05;;;;;;;0.22;0.22;;;;;;;7.92;77.14;100172.31;15671919;28;20056;-54
2023/11/12 08:15:40;;;;;;;;;;;;;;;7.67;78.21;100172.13;15658901;28;20095;-53
2023/11/12 08:23:13;;;;;;;0.10;0.10;;;;;;;7.87;78.21;100174.78;15664084;28;20032;-52
2023/11/12 08:30:47;;;;;;;0.08;0.08;;;;;;;7.98;78.02;100178.72;15653399;28;20421;-51
2023/11/12 08:38:21;;;;;;;0.45;0.30;;;;;;;8.29;76.88;100181.53;15675141;28;20053;-54
2023/11/12 08:45:55;;;;;;;0.00;0.00;;;;;;;8.43;76.22;100190.38;15658368;28;20662;-53
2023/11/12 08:53:28;;;;;;;0.00;0.00;;;;;;;8.31;76.01;100192.03;15648336;28;20033;-52
2023/11/12 09:01:08;;;;;;;1.70;1.35;;;;;;;8.49;76.68;100184.19;15676344;28;20049;-53
2023/11/12 09:08:42;;;;;;;0.28;0.08;;;;;;;8.59;76.03;100186.44;15649787;28;20084;-54
2023/11/12 09:16:16;;;;;;;0.40;0.40;;;;;;;8.67;75.32;100197.72;15647067;28;20132;-50
2023/11/12 09:23:50;;;;;;;0.45;0.30;;;;;;;8.22;77.20;100207.47;15650978;28;20056;-51
2023/11/12 09:31:25;;;;;;;;;;;;;;;8.62;75.77;100213.56;15640608;28;20037;-54
2023/11/12 09:38:59;;;;;;;0.25;0.25;;;;;;;8.82;75.41;100212.69;15657086;28;20011;-51
2023/11/12 09:46:33;;;;;;;;;;;;;;;8.02;77.90;100212.00;15668844;28;20044;-52
2023/11/12 09:54:09;;;;;;;0.32;0.32;;;;;;;8.25;78.18;100214.22;15651882;28;20300;-53
2023/11/12 10:01:47;;;;;;;1.13;0.40;;;;;;;7.78;80.78;100216.09;15676292;28;20044;-52
2023/11/12 10:09:26;;;;;;;0.00;0.00;;;;;;;7.56;81.20;100220.81;15685968;28;20048;-51
2023/11/12 10:17:11;;;;;;;0.13;0.10;;;;;;;8.08;80.75;100225.38;15678739;28;20085;-53
2023/11/12 10:24:45;;;;;;;0.45;0.45;;;;;;;8.35;80.63;100215.47;15672703;28;20048;-52
2023/11/12 10:32:26;;;;;;;0.10;0.10;;;;;;;8.36;80.22;100218.97;15673529;28;20505;-52
2023/11/12 10:40:06;;;;;;;0.60;0.60;;;;;;;8.45;80.63;100225.78;15671824;28;20140;-53
2023/11/12 10:47:43;;;;;;;0.20;0.20;;;;;;;7.82;81.20;100230.69;15680023;28;20083;-51
2023/11/12 10:55:19;;;;;;;0.35;0.35;;;;;;;7.98;81.63;100235.66;15684240;28;20069;-53
2023/11/12 11:02:53;;;;;;;0.82;0.82;;;;;;;8.25;81.06;100225.75;15654284;28;20144;-51
2023/11/12 11:10:27;;;;;;;0.68;0.68;;;;;;;8.18;81.18;100228.44;15663590;28;20079;-52
2023/11/12 11:18:03;;;;;;;;;;;;;;;7.97;81.01;100234.00;15646569;28;20065;-53
2023/11/12 11:25:36;;;;;;;0.10;0.10;;;;;;;8.51;79.89;100232.13;15670361;28;20027;-50
2023/11/12 11:33:11;;;;;;;;;;;;;;;7.98;80.28;100243.69;15654241;28;20049;-52
2023/11/12 11:40:56;;;;;;;0.13;0.13;;;;;;;8.40;79.28;100234.41;15665348;28;19925;-52
2023/11/12 11:48:31;;;;;;;0.50;0.47;;;;;;;8.16;79.17;100238.53;15651731;28;20106;-53
2023/11/12 11:56:11;;;;;;;0.88;0.45;;;;;;;7.79;80.19;100236.47;15639825;23;20461;-47
2023/11/12 12:03:46;;;;;;;0.32;0.32;;;;;;;8.22;78.76;100247.56;15619858;28;20045;-50
2023/11/12 12:11:22;;;;;;;1.67;0.68;;;;;;;8.68;76.80;100246.72;15636335;28;20061;-51
2023/11/12 12:18:57;;;;;;;1.08;0.30;;;;;;;8.29;78.75;100252.91;15639270;28;20457;-47
2023/11/12 12:26:31;;;;;;;0.65;0.32;;;;;;;8.55;77.09;100260.09;15635066;28;20048;-50
2023/11/12 12:34:07;;;;;;;0.10;0.10;;;;;;;8.42;76.52;100261.75;15628841;28;20042;-53
2023/11/12 12:41:40;;;;;;;0.00;0.00;;;;;;;8.37;76.75;100253.53;15613868;28;20041;-47
2023/11/12 12:49:30;;;;;;;0.00;0.00;;;;;;;8.56;77.14;100256.41;15624675;28;20492;-49
2023/11/12 12:57:04;;;;;;;0.22;0.15;;;;;;;8.86;73.75;100260.25;15629347;28;20045;-51
2023/11/12 13:04:39;;;;;;;1.35;0.47;;;;;;;8.44;75.17;100256.22;15610704;28;20064;-49
2023/11/12 13:12:13;;;;;;;0.10;0.10;;;;;;;8.16;76.60;100259.09;15647846;28;20449;-46
2023/11/12 13:19:49;;;;;;;0.03;0.03;;;;;;;8.31;76.57;100253.53;15625680;28;20640;-50
2023/11/12 13:27:22;;;;;;;0.55;0.45;;;;;;;8.92;74.83;100254.03;15633238;28;20603;-48
2023/11/12 13:34:58;;;;;;;0.10;0.10;;;;;;;8.90;74.81;100261.44;15609818;28;20050;-52
2023/11/12 13:42:32;;;;;;;0.00;0.00;;;;;;;9.41;72.61;100255.25;15609718;28;20038;-49
2023/11/12 13:50:10;;;;;;;0.80;0.65;;;;;;;8.67;74.92;100256.59;15593103;28;20478;-49
2023/11/12 13:57:45;;;;;;;0.00;0.00;;;;;;;8.72;74.69;100272.00;15603113;28;20585;-46
2023/11/12 14:05:26;;;;;;;0.10;0.10;;;;;;;8.35;75.33;100260.13;15623103;28;20458;-47
2023/11/12 14:13:02;;;;;;;0.10;0.08;;;;;;;8.79;74.53;100263.97;15616883;28;20152;-49
2023/11/12 14:20:38;;;;;;;0.00;0.00;;;;;;;8.80;75.00;100263.75;15615273;28;20033;-51
2023/11/12 14:28:11;;;;;;;0.25;0.25;;;;;;;8.99;74.37;100274.59;15626241;28;20112;-48
2023/11/12 14:35:46;;;;;;;0.63;0.52;;;;;;;8.65;75.01;100280.03;15613145;28;20478;-52
2023/11/12 14:43:20;;;;;;;0.60;0.52;;;;;;;8.65;75.98;100279.22;15608126;28;20103;-49
2023/11/12 14:50:54;;;;;;;3.78;1.25;;;;;;;8.88;74.07;100257.34;15622618;28;20057;-48
2023/11/12 14:58:28;;;;;;;0.55;0.55;;;;;;;9.10;73.37;100276.63;15612979;28;20072;-51
2023/11/12 15:06:04;;;;;;;0.03;0.03;;;;;;;9.26;73.46;100289.53;15601947;28;20183;-48
2023/11/12 15:13:38;;;;;;;0.70;0.35;;;;;;;9.26;72.98;100284.19;15629948;28;20532;-49
2023/11/12 15:21:14;;;;;;;1.08;0.55;;;;;;;9.14;73.17;100289.38;15620664;28;20152;-47
2023/11/12 15:28:48;;;;;;;1.85;1.55;;;;;;;9.25;73.32;100301.28;15620310;28;20069;-51
2023/11/12 15:36:23;;;;;;;0.20;0.20;;;;;;;9.03;73.39;100300.72;15610157;28;20049;-48
2023/11/12 15:43:57;;;;;;;0.00;0.00;;;;;;;9.16;72.99;100308.72;15612408;28;20038;-51
2023/11/12 15:51:32;;;;;;;0.63;0.30;;;;;;;8.69;74.18;100309.88;15625467;28;20426;-52
2023/11/12 15:59:06;;;;;;;0.15;0.13;;;;;;;8.91;73.09;100310.47;15600671;28;20132;-49
2023/11/12 16:06:41;;;;;;;0.98;0.70;;;;;;;8.91;72.92;100321.16;15595198;28;20042;-48
2023/11/12 16:14:14;;;;;;;0.82;0.70;;;;;;;8.82;72.89;100339.31;15612939;28;20056;-48
2023/11/12 16:21:49;;;;;;;0.68;0.68;;;;;;;8.65;74.83;100344.25;15628778;28;20049;-47
2023/11/12 16:29:23;;;;;;;0.20;0.20;;;;;;;8.54;73.97;100352.09;15604260;28;20087;-53
2023/11/12 16:36:58;;;;;;;1.13;0.85;;;;;;;8.46;74.16;100355.78;15645649;28;20036;-48
2023/11/12 16:44:31;;;;;;;2.45;2.05;;;;;;;8.41;74.07;100345.69;15635896;28;20079;-50
2023/11/12 16:52:08;;;;;;;0.10;0.10;;;;;;;8.51;73.75;100355.16;15614607;28;20301;-49
2023/11/12 16:59:42;;;;;;;0.00;0.00;;;;;;;8.64;72.86;100361.34;15605068;28;20471;-46
2023/11/12 17:07:17;;;;;;;0.22;0.22;;;;;;;8.66;72.80;100355.78;15606924;28;20410;-50
2023/11/12 17:14:51;;;;;;;0.25;0.25;;;;;;;8.58;72.98;100359.50;15598728;28;20049;-54
2023/11/12 17:22:25;;;;;;;;;;;;;;;8.29;73.74;100363.34;15608147;28;20049;-51
2023/11/12 17:29:58;;;;;;;0.00;0.00;;;;;;;8.51;73.27;100366.69;15627006;28;19995;-48
2023/11/12 17:37:33;;;;;;;0.95;0.93;;;;;;;8.33;74.92;100375.28;15622606;28;20135;-54
2023/11/12 17:45:10;;;;;;;0.47;0.47;;;;;;;7.82;75.63;100383.81;15621927;28;20486;-48
2023/11/12 17:52:45;;;;;;;0.10;0.10;;;;;;;8.27;74.21;100383.31;15613064;28;20029;-55
2023/11/12 18:00:20;;;;;;;0.00;0.00;;;;;;;8.32;73.70;100387.00;15633543;28;20700;-53
2023/11/12 18:07:55;;;;;;;0.28;0.28;;;;;;;8.22;74.00;100391.94;15621174;28;20045;-51
2023/11/12 18:15:28;;;;;;;0.32;0.32;;;;;;;7.99;73.79;100388.81;15602583;28;20132;-54
2023/11/12 18:23:03;;;;;;;0.22;0.22;;;;;;;8.18;73.54;100391.53;15627490;28;20057;-55
2023/11/12 18:30:38;;;;;;;0.00;0.00;;;;;;;7.65;75.06;100398.56;15639858;28;20107;-50
2023/11/12 18:38:13;;;;;;;0.00;0.00;;;;;;;7.98;75.45;100390.66;15638943;28;20064;-52
2023/11/12 18:45:46;;;;;;;0.38;0.38;;;;;;;8.14;72.28;100400.16;15610704;28;20041;-53
2023/11/12 18:53:21;;;;;;;0.00;0.00;;;;;;;8.14;73.19;100408.16;15623745;28;20137;-50
2023/11/12 19:00:54;;;;;;;0.20;0.10;;;;;;;8.30;72.15;100406.94;15606683;28;20050;-51
2023/11/12 19:08:29;;;;;;;0.00;0.00;;;;;;;8.29;72.04;100416.00;15613453;28;20211;-49
2023/11/12 19:16:02;;;;;;;0.88;0.30;;;;;;;8.27;71.73;100420.75;15600550;28;20037;-53
2023/11/12 19:23:37;;;;;;;0.00;0.00;;;;;;;8.22;71.82;100409.84;15617670;28;20046;-53
2023/11/12 19:31:10;;;;;;;1.33;0.35;;;;;;;7.81;72.66;100414.25;15625407;28;20414;-54
2023/11/12 19:38:45;;;;;;;0.00;0.00;;;;;;;7.41;74.79;100405.22;15626346;28;20073;-52
2023/11/12 19:46:19;;;;;;;0.00;0.00;;;;;;;7.85;73.26;100398.63;15643350;28;20557;-52
2023/11/12 19:53:53;;;;;;;0.00;0.00;;;;;;;7.73;72.78;100401.03;15639884;28;20067;-54
2023/11/12 20:01:29;;;;;;;0.10;0.10;;;;;;;7.27;73.41;100371.47;15604347;28;20054;-54
2023/11/12 20:09:04;;;;;;;0.32;0.25;;;;;;;7.04;72.58;100417.09;15624620;28;20189;-54
2023/11/12 20:16:43;;;;;;;0.00;0.00;;;;;;;6.89;72.79;100426.03;15635892;28;20053;-51
2023/11/12 20:24:18;;;;;;;0.10;0.10;;;;;;;6.73;72.65;100429.00;15627571;28;20083;-53
2023/11/12 20:31:53;;;;;;;1.02;0.45;;;;;;;6.59;73.10;100445.91;15641520;28;20060;-54
2023/11/12 20:39:28;;;;;;;0.55;0.47;;;;;;;6.60;73.10;100458.22;15616482;28;20068;-53
2023/11/12 20:47:01;;;;;;;0.55;0.55;;;;;;;6.35;72.43;100461.28;15624794;28;20131;-51
2023/11/12 20:54:37;;;;;;;0.00;0.00;;;;;;;6.24;72.94;100466.25;15603959;28;20052;-55
2023/11/12 21:02:15;;;;;;;0.30;0.17;;;;;;;6.08;73.89;100465.47;15618469;28;20069;-57
2023/11/12 21:09:52;;;;;;;1.92;1.05;;;;;;;6.02;73.78;100468.91;15647223;28;20119;-55
2023/11/12 21:17:25;;;;;;;0.00;0.00;;;;;;;6.12;75.09;100460.63;15622153;28;20045;-53
2023/11/12 21:24:59;;;;;;;0.22;0.22;;;;;;;6.14;75.50;100469.22;15633490;28;20076;-55
2023/11/12 21:32:33;;;;;;;1.48;0.73;;;;;;;5.88;76.53;100477.72;15633587;28;20045;-51
2023/11/12 21:40:09;;;;;;;0.00;0.00;;;;;;;5.67;77.62;100482.97;15630133;28;20041;-50
2023/11/12 21:47:43;;;;;;;0.00;0.00;;;;;;;5.64;78.02;100484.16;15621901;28;20443;-52
2023/11/12 21:55:20;;;;;;;0.00;0.00;;;;;;;6.17;78.00;100484.84;15621564;28;20041;-50
2023/11/12 22:02:53;;;;;;;0.43;0.43;;;;;;;6.17;76.67;100476.03;15609589;28;20053;-51
2023/11/12 22:10:29;;;;;;;0.50;0.28;;;;;;;6.38;76.72;100484.03;15630165;28;20251;-56
2023/11/12 22:18:04;;;;;;;0.00;0.00;;;;;;;6.50;75.64;100487.88;15631040;28;20458;-51
2023/11/12 22:25:39;;;;;;;0.00;0.00;;;;;;;6.64;74.94;100491.50;15622328;28;20061;-53
2023/11/12 22:33:13;;;;;;;0.00;0.00;;;;;;;6.61;75.74;100489.19;15614299;28;20050;-53
2023/11/12 22:40:48;;;;;;;0.00;0.00;;;;;;;6.62;74.56;100497.03;15622169;28;20410;-53
2023/11/12 22:48:21;;;;;;;0.08;0.08;;;;;;;6.09;76.51;100507.09;15604284;28;20052;-50
2023/11/12 22:55:56;;;;;;;1.83;1.00;;;;;;;6.81;74.77;100513.41;15649583;28;20111;-51
2023/11/12 23:03:31;;;;;;;0.00;0.00;;;;;;;6.98;73.51;100509.44;15648196;28;20049;-52
2023/11/12 23:11:07;;;;;;;0.00;0.00;;;;;;;7.03;74.01;100504.34;15633653;28;20052;-51
2023/11/12 23:18:41;;;;;;;0.00;0.00;;;;;;;6.95;73.54;100509.00;15656169;28;20521;-50
2023/11/12 23:26:16;;;;;;;0.00;0.00;;;;;;;6.90;73.79;100518.44;15650488;28;20037;-50
2023/11/12 23:33:50;;;;;;;0.00;0.00;;;;;;;7.15;73.44;100515.34;15659968;28;20052;-50
2023/11/12 23:41:25;;;;;;;0.00;0.00;;;;;;;7.27;72.67;100526.28;15647325;28;20063;-49
2023/11/12 23:48:58;;;;;;;0.00;0.00;;;;;;;7.25;72.44;100534.50;15656431;28;20053;-50
2023/11/12 23:56:33;;;;;;;0.00;0.00;;;;;;;7.34;71.56;100554.72;15685185;22;20497;-53
